createdAt,value
2023-03-23T16:00:18.134Z,22.73
2023-03-23T16:02:43.854Z,22.65
2023-03-23T16:05:09.077Z,23.10
2023-03-23T16:07:35.411Z,23.27
2023-03-23T16:10:00.434Z,22.95
2023-03-23T16:12:25.036Z,23.73
2023-03-23T16:14:49.662Z,24.80
2023-03-23T16:17:21.933Z,24.92
2023-03-23T16:19:46.449Z,25.27
2023-03-23T16:22:11.698Z,23.65
2023-03-23T16:24:38.793Z,25.15
2023-03-23T16:27:05.646Z,23.48
2023-03-23T16:31:58.775Z,25.85
2023-03-23T16:34:23.430Z,25.70
2023-03-23T16:36:47.892Z,26.92
2023-03-23T16:39:13.809Z,26.67
2023-03-23T16:41:41.219Z,26.67
2023-03-23T16:44:06.404Z,27.10
2023-03-23T16:46:32.199Z,28.00
2023-03-23T16:48:56.966Z,28.40
2023-03-23T16:51:21.393Z,27.38
2023-03-23T16:53:46.012Z,28.13
2023-03-23T16:56:10.698Z,27.92
2023-03-23T16:58:36.936Z,29.92
2023-03-23T17:01:05.971Z,30.33
2023-03-23T17:03:31.827Z,29.52
2023-03-23T17:05:56.411Z,28.98
2023-03-23T17:08:21.557Z,29.35
2023-03-23T17:10:46.900Z,29.10
2023-03-23T17:13:12.035Z,28.17
2023-03-23T17:15:40.636Z,28.25
2023-03-23T17:18:06.526Z,29.13
2023-03-23T17:20:34.885Z,30.27
2023-03-23T17:23:02.669Z,29.90
2023-03-23T17:25:27.805Z,28.80
2023-03-23T17:27:52.409Z,32.10
2023-03-23T17:30:18.378Z,31.42
2023-03-23T17:32:47.629Z,30.77
2023-03-23T17:35:12.290Z,31.05
2023-03-23T17:37:38.025Z,30.10
2023-03-23T17:40:03.475Z,32.00
2023-03-23T17:42:28.271Z,32.08
2023-03-23T17:44:58.958Z,33.22
2023-03-23T17:47:23.982Z,32.40
2023-03-23T17:49:49.851Z,33.63
2023-03-23T17:52:14.570Z,34.35
2023-03-23T17:54:39.468Z,34.28
2023-03-23T17:57:05.256Z,33.63
2023-03-23T17:59:30.423Z,33.65
2023-03-23T18:01:55.222Z,34.38
2023-03-23T18:04:20.262Z,33.25
2023-03-23T18:06:47.672Z,32.90
2023-03-23T18:09:12.277Z,35.15
2023-03-23T18:11:36.857Z,33.42
2023-03-23T18:14:03.327Z,34.63
2023-03-23T18:16:28.659Z,37.15
2023-03-23T18:18:56.499Z,35.25
2023-03-23T18:21:24.067Z,37.92
2023-03-23T18:23:58.793Z,36.50
2023-03-23T18:26:24.680Z,36.50
2023-03-23T18:28:50.623Z,36.25
2023-03-23T18:31:17.174Z,35.95
2023-03-23T18:33:44.973Z,34.90
2023-03-23T18:36:10.658Z,37.00
2023-03-23T18:38:38.122Z,35.75
2023-03-23T18:41:07.815Z,36.88
2023-03-23T18:43:32.405Z,36.63
2023-03-23T18:45:59.972Z,35.88
2023-03-23T18:48:25.390Z,36.83
2023-03-23T18:50:50.436Z,34.55
2023-03-23T18:53:16.107Z,36.60
2023-03-23T18:55:40.830Z,36.47
2023-03-23T18:58:06.835Z,36.42
2023-03-23T19:00:33.861Z,37.20
2023-03-23T19:03:00.902Z,37.88
2023-03-23T19:05:25.750Z,39.30
2023-03-23T19:07:53.198Z,38.75
2023-03-23T19:10:18.296Z,40.08
2023-03-23T19:12:47.230Z,40.67
2023-03-23T19:15:15.215Z,38.90
2023-03-23T19:17:39.947Z,38.95
2023-03-23T19:20:13.599Z,40.00
2023-03-23T19:22:41.878Z,37.95
2023-03-23T19:25:08.244Z,38.28
2023-03-23T19:27:32.813Z,37.50
2023-03-23T19:30:00.488Z,38.58
2023-03-23T19:32:26.441Z,39.13
2023-03-23T19:34:51.514Z,38.85
2023-03-23T19:37:19.297Z,39.75
2023-03-23T19:39:44.563Z,39.42
2023-03-23T19:42:09.773Z,38.47
2023-03-23T19:44:34.928Z,38.70
2023-03-23T19:46:59.911Z,37.70
2023-03-23T19:49:26.220Z,39.97
2023-03-23T19:51:52.569Z,39.88
2023-03-23T19:54:37.054Z,39.00
2023-03-23T19:57:02.354Z,38.28
2023-03-23T19:59:26.815Z,40.17
2023-03-23T20:01:51.844Z,39.95
2023-03-23T20:04:19.816Z,38.63
2023-03-23T20:06:46.328Z,39.67
2023-03-23T20:09:10.869Z,39.17
2023-03-23T20:11:40.358Z,39.13
2023-03-23T20:14:05.689Z,40.97
2023-03-23T20:16:32.941Z,40.15
2023-03-23T20:19:00.114Z,42.55
2023-03-23T20:21:25.932Z,41.92
2023-03-23T20:23:56.337Z,41.58
2023-03-23T20:26:25.922Z,40.15
2023-03-23T20:28:52.335Z,41.03
2023-03-23T20:31:23.918Z,39.63
2023-03-23T20:34:01.108Z,40.80
2023-03-23T20:36:29.859Z,41.10
2023-03-23T20:39:10.035Z,39.13
2023-03-23T20:41:36.311Z,38.92
2023-03-23T20:44:00.930Z,37.30
2023-03-23T20:46:31.119Z,37.72
2023-03-23T20:48:58.144Z,39.80
2023-03-23T20:51:22.784Z,38.53
2023-03-23T20:53:48.590Z,39.90
2023-03-23T20:56:14.483Z,38.72
2023-03-23T20:58:43.191Z,38.72
2023-03-23T21:01:10.893Z,40.33
2023-03-23T21:03:40.345Z,37.45
2023-03-23T21:06:08.793Z,39.45
2023-03-23T21:08:38.046Z,39.05
2023-03-23T21:11:03.017Z,40.08
2023-03-23T21:13:43.101Z,38.17
2023-03-23T21:16:10.804Z,38.08
2023-03-23T21:18:36.856Z,40.60
2023-03-23T21:21:11.318Z,36.85
2023-03-23T21:23:35.986Z,39.50
2023-03-23T21:26:02.529Z,38.88
2023-03-23T21:28:28.541Z,39.15
2023-03-23T21:30:54.727Z,38.58
2023-03-23T21:33:20.128Z,39.85
2023-03-23T21:35:45.042Z,38.65
2023-03-23T21:38:14.243Z,39.35
2023-03-23T21:40:38.689Z,37.77
2023-03-23T21:43:03.239Z,38.10
2023-03-23T21:45:29.038Z,37.55
2023-03-23T21:47:57.182Z,37.35
2023-03-23T21:50:22.267Z,36.17
2023-03-23T21:52:51.000Z,37.00
2023-03-23T21:55:16.790Z,37.53
2023-03-23T21:57:42.473Z,35.97
2023-03-23T22:00:13.901Z,36.28
2023-03-23T22:02:39.165Z,36.78
2023-03-23T22:05:05.407Z,36.63
2023-03-23T22:07:31.536Z,60.63
2023-03-23T22:09:56.650Z,44.25
2023-03-23T22:12:21.809Z,41.10
2023-03-23T22:14:46.656Z,36.75
2023-03-23T22:17:11.838Z,37.15
2023-03-23T22:19:36.730Z,36.03
2023-03-23T22:22:04.088Z,35.35
2023-03-23T22:24:32.033Z,35.60
2023-03-23T22:26:56.632Z,35.05
2023-03-23T22:29:21.610Z,36.67
2023-03-23T22:31:46.881Z,35.28
2023-03-23T22:34:12.534Z,35.80
2023-03-23T22:36:37.210Z,36.45
2023-03-23T22:39:04.032Z,33.17
2023-03-23T22:41:30.559Z,36.58
2023-03-23T22:43:55.456Z,35.67
2023-03-23T22:46:20.660Z,37.65
2023-03-23T22:48:45.820Z,36.78
2023-03-23T22:51:11.240Z,36.95
2023-03-23T22:53:35.886Z,39.28
2023-03-23T22:56:01.946Z,35.72
2023-03-23T22:58:27.493Z,38.03
2023-03-23T23:00:58.251Z,38.47
2023-03-23T23:03:24.939Z,37.50
2023-03-23T23:05:51.994Z,36.55
2023-03-23T23:08:18.165Z,37.35
2023-03-23T23:10:44.739Z,37.33
2023-03-23T23:13:12.053Z,35.92
2023-03-23T23:15:37.200Z,35.63
2023-03-23T23:18:01.945Z,37.13
2023-03-23T23:20:26.532Z,37.15
2023-03-23T23:22:52.406Z,37.38
2023-03-23T23:25:17.284Z,37.35
2023-03-23T23:27:41.904Z,36.10
2023-03-23T23:30:10.075Z,35.63
2023-03-23T23:32:37.072Z,34.30
2023-03-23T23:35:06.469Z,36.58
2023-03-23T23:37:31.107Z,35.38
2023-03-23T23:40:16.514Z,35.80
2023-03-23T23:42:41.091Z,36.13
2023-03-23T23:45:10.328Z,35.10
2023-03-23T23:47:35.128Z,37.17
2023-03-23T23:49:59.650Z,36.97
2023-03-23T23:52:29.813Z,36.85
2023-03-23T23:54:54.432Z,35.80
2023-03-23T23:57:19.071Z,34.97
2023-03-23T23:59:46.204Z,35.42
